Thursday, September 20, 2018, 12:34 PM EDT
Back to Local

KART, Watertown International Airport

Location: Dexter, NY, United States Lat: 43.983
Local Time: 12:34 PM EDT (16:34 GMT) Lon: -76.033
Time Zone: US/Eastern Elev: 324 ft

Show me the last for .
Show Decoded

2018-09-20 11:56 METAR KART 201556Z AUTO VRB03KT 10SM CLR 18/13 A3021 RMK AO2 SLP227 T01830128 $
                 =
2018-09-20 10:56 METAR KART 201456Z AUTO 03006KT 10SM CLR 17/12 A3021 RMK AO2 SLP229 T01670122
                 58001 $ =
2018-09-20 09:56 METAR KART 201356Z AUTO 08010KT 10SM CLR 14/11 A3020 RMK AO2 SLP227 T01440106 $
                 =
2018-09-20 08:56 METAR KART 201256Z AUTO 06009KT 10SM CLR 12/11 A3022 RMK AO2 SLP233 T01220106 $
                 =
2018-09-20 07:56 METAR KART 201156Z AUTO 07006KT 8SM CLR 09/09 A3021 RMK AO2 SLP230 T00940094
                 10094 20061 51023 $ =
2018-09-20 06:56 METAR KART 201056Z AUTO 06004KT 9SM CLR 08/08 A3021 RMK AO2 SLP228 T00830083 $ =
2018-09-20 05:56 METAR KART 200956Z AUTO 08004KT 8SM CLR 08/08 A3018 RMK AO2 SLP219 T00780078 $ =
2018-09-20 05:26 METAR KART 200926Z AUTO 35003KT 5SM BR CLR 07/07 A3017 RMK AO2 PRESRR T00670067
                 $ =
2018-09-20 05:10 METAR KART 200910Z AUTO 06003KT 2SM BR SCT001 06/06 A3015 RMK AO2 T00610061 $ =
2018-09-20 05:07 METAR KART 200907Z AUTO 00000KT 1SM BR VV001 06/06 A3015 RMK AO2 T00610061 $ =
2018-09-20 04:56 METAR KART 200856Z AUTO 00000KT 1/4SM FG BKN001 06/06 A3014 RMK AO2 SLP207
                 T00610061 55001 $ =
2018-09-20 04:48 METAR KART 200848Z AUTO 00000KT 3/4SM BR VV001 06/06 A3014 RMK AO2 T00610061 $ =
2018-09-20 04:46 METAR KART 200846Z AUTO 00000KT 1 1/2SM BR FEW001 06/06 A3014 RMK AO2 VIS 1/2V4
                 T00610061 $ =
2018-09-20 03:56 METAR KART 200756Z AUTO 00000KT 5SM BR CLR 08/08 A3012 RMK AO2 SLP199 T00780078
                 $ =
2018-09-20 03:34 METAR KART 200734Z AUTO 13003KT 3SM BR CLR 07/07 A3011 RMK AO2 T00720072 $ =
2018-09-20 03:25 METAR KART 200725Z AUTO 10004KT 2 1/2SM BR FEW002 07/07 A3011 RMK AO2 PRESFR
                 T00670067 $ =
2018-09-20 03:13 METAR KART 200713Z AUTO 08004KT 3SM BR FEW002 07/07 A3013 RMK AO2 T00670067 $ =
2018-09-20 03:06 METAR KART 200706Z AUTO 07003KT 1 3/4SM BR FEW002 06/06 A3014 RMK AO2 T00610061
                 $ =
2018-09-20 02:56 METAR KART 200656Z AUTO 05003KT 1/2SM FG VV002 07/07 A3014 RMK AO2 SLP204
                 T00670067 $ =
2018-09-20 02:44 METAR KART 200644Z AUTO 00000KT 1/4SM FG VV002 06/06 A3014 RMK AO2 T00610061 $ =
2018-09-20 02:37 METAR KART 200637Z AUTO 13003KT 1SM BR VV002 06/06 A3014 RMK AO2 T00610061 $ =
2018-09-20 02:20 METAR KART 200620Z AUTO 00000KT 3/4SM BR VV001 07/07 A3015 RMK AO2 T00670067 $ =
2018-09-20 02:07 METAR KART 200607Z AUTO 00000KT 3SM BR CLR 07/07 A3015 RMK AO2 T00720072 $ =
2018-09-20 01:56 METAR KART 200556Z AUTO 00000KT 1SM BR CLR 07/07 A3015 RMK AO2 SLP208 T00720072
                 10156 20072 51006 $ =
2018-09-20 01:32 METAR KART 200532Z AUTO 00000KT 1/2SM FG CLR 08/08 A3015 RMK AO2 T00780078 $ =
2018-09-20 01:25 METAR KART 200525Z AUTO 00000KT 1 1/4SM BR CLR 07/07 A3015 RMK AO2 VIS 1/4V5
                 T00720072 $ =
2018-09-20 01:03 METAR KART 200503Z AUTO 11004KT 4SM BR CLR 08/08 A3014 RMK AO2 T00780078 $ =
2018-09-20 00:56 METAR KART 200456Z AUTO 08003KT 1SM BR CLR 08/07 A3015 RMK AO2 SLP208 T00780072
                 402000072 $ =
2018-09-20 00:40 METAR KART 200440Z AUTO 00000KT 1 3/4SM BR CLR 08/08 A3016 RMK AO2 T00780078 $ =
2018-09-20 00:10 METAR KART 200410Z AUTO 00000KT 7SM CLR 08/08 A3015 RMK AO2 T00830083 $ =
2018-09-20 00:02 METAR KART 200402Z AUTO 00000KT 2SM BR CLR 09/09 A3014 RMK AO2 T00890089 $ =
2018-09-19 23:56 METAR KART 200356Z AUTO 00000KT 1/2SM FG CLR 09/09 A3014 RMK AO2 SLP204
                 T00890089 $ =
2018-09-19 23:47 METAR KART 200347Z AUTO 00000KT 3/4SM BR CLR 09/09 A3014 RMK AO2 T00890089 $ =
2018-09-19 22:56 METAR KART 200256Z AUTO 00000KT 9SM CLR 10/10 A3013 RMK AO2 SLP201 T01000100
                 51007 $ =
2018-09-19 21:56 METAR KART 200156Z AUTO 06003KT 10SM CLR 12/11 A3012 RMK AO2 SLP198 T01220106 $
                 =
2018-09-19 20:56 METAR KART 200056Z AUTO 03004KT 10SM OVC037 16/12 A3012 RMK AO2 SLP199 T01560117
                 $ =
2018-09-19 19:56 METAR KART 192356Z AUTO 02005KT 10SM OVC036 16/11 A3011 RMK AO2 SLP194 T01610111
                 10194 20161 52018 $ =
2018-09-19 18:56 METAR KART 192256Z AUTO 02007KT 10SM OVC036 17/11 A3009 RMK AO2 SLP187 T01720111
                 $ =
2018-09-19 17:56 METAR KART 192156Z AUTO 02007KT 10SM OVC037 18/11 A3007 RMK AO2 SLP182 T01780106
                 $ =
2018-09-19 16:56 METAR KART 192056Z AUTO 36009KT 10SM OVC039 18/11 A3006 RMK AO2 SLP175 T01830111
                 50008 $ =
2018-09-19 15:56 METAR KART 191956Z AUTO 03009KT 10SM OVC038 18/12 A3007 RMK AO2 SLP179 T01830122
                 $ =
2018-09-19 14:56 METAR KART 191856Z AUTO 03010KT 10SM OVC037 19/12 A3005 RMK AO2 SLP174 T01890117
                 $ =
2018-09-19 13:56 METAR KART 191756Z AUTO 03010KT 10SM OVC036 19/12 A3003 RMK AO2 SLP166 T01940122
                 10200 20150 57003 $ =
2018-09-19 12:56 METAR KART 191656Z AUTO 01009KT 10SM OVC036 19/12 A3004 RMK AO2 SLP169 T01890122
                 $ =

Support USWX by starting your Amazon purchase here.